createdAt,value
2023-03-21T00:00:46.307Z,94.46
2023-03-21T00:01:46.262Z,94.56
2023-03-21T00:02:46.344Z,94.46
2023-03-21T00:03:46.540Z,94.46
2023-03-21T00:04:52.371Z,94.15
2023-03-21T00:05:46.245Z,94.15
2023-03-21T00:06:46.249Z,94.15
2023-03-21T00:07:46.239Z,93.95
2023-03-21T00:08:46.224Z,93.85
2023-03-21T00:09:46.169Z,93.95
2023-03-21T00:10:46.199Z,94.05
2023-03-21T00:11:46.509Z,94.05
2023-03-21T00:12:46.217Z,93.95
2023-03-21T00:13:46.144Z,93.85
2023-03-21T00:14:46.147Z,93.85
2023-03-21T00:15:54.108Z,93.85
2023-03-21T00:16:46.375Z,93.74
2023-03-21T00:17:46.125Z,93.64
2023-03-21T00:18:47.170Z,93.54
2023-03-21T00:19:46.093Z,93.49
2023-03-21T00:20:46.162Z,93.39
2023-03-21T00:22:03.603Z,93.29
2023-03-21T00:22:46.043Z,93.39
2023-03-21T00:23:46.046Z,93.39
2023-03-21T00:24:46.057Z,93.39
2023-03-21T00:25:46.311Z,93.39
2023-03-21T00:26:46.203Z,93.29
2023-03-21T00:28:05.100Z,93.29
2023-03-21T00:28:45.988Z,93.29
2023-03-21T00:29:45.959Z,93.39
2023-03-21T00:30:46.038Z,93.19
2023-03-21T00:31:45.947Z,93.29
2023-03-21T00:32:55.513Z,93.19
2023-03-21T00:33:45.930Z,93.29
2023-03-21T00:34:59.560Z,93.29
2023-03-21T00:36:05.125Z,93.29
2023-03-21T00:36:45.952Z,93.19
2023-03-21T00:37:45.904Z,93.19
2023-03-21T00:38:45.879Z,93.29
2023-03-21T00:39:46.190Z,93.29
2023-03-21T00:40:49.213Z,93.29
2023-03-21T00:41:45.969Z,93.29
2023-03-21T00:42:45.862Z,93.19
2023-03-21T00:43:45.930Z,93.29
2023-03-21T00:44:45.804Z,93.29
2023-03-21T00:45:45.825Z,93.39
2023-03-21T00:47:04.255Z,93.49
2023-03-21T00:47:45.945Z,93.60
2023-03-21T00:48:45.806Z,93.60
2023-03-21T00:49:45.767Z,93.80
2023-03-21T00:50:45.752Z,93.80
2023-03-21T00:51:45.733Z,93.80
2023-03-21T00:52:45.736Z,93.90
2023-03-21T00:53:45.975Z,93.90
2023-03-21T00:54:45.748Z,94.01
2023-03-21T00:55:45.700Z,94.11
2023-03-21T00:56:45.695Z,94.21
2023-03-21T00:57:50.181Z,94.21
2023-03-21T00:58:45.666Z,94.32
2023-03-21T00:59:45.651Z,94.21
2023-03-21T01:00:45.709Z,94.32
2023-03-21T01:01:45.651Z,94.42
2023-03-21T01:02:47.191Z,94.42
2023-03-21T01:03:45.598Z,94.52
2023-03-21T01:04:45.597Z,94.52
2023-03-21T01:05:45.885Z,94.52
2023-03-21T01:06:45.639Z,94.52
2023-03-21T01:07:45.565Z,94.52
2023-03-21T01:08:52.670Z,94.73
2023-03-21T01:09:45.553Z,94.73
2023-03-21T01:10:45.539Z,94.73
2023-03-21T01:11:45.530Z,94.73
2023-03-21T01:12:45.556Z,94.83
2023-03-21T01:13:53.842Z,94.83
2023-03-21T01:14:45.500Z,94.93
2023-03-21T01:15:45.516Z,94.93
2023-03-21T01:16:45.478Z,95.03
2023-03-21T01:17:45.810Z,95.14
2023-03-21T01:18:45.511Z,95.14
2023-03-21T01:19:52.115Z,95.24
2023-03-21T01:20:45.427Z,95.34
2023-03-21T01:21:45.415Z,95.44
2023-03-21T01:22:45.415Z,95.54
2023-03-21T01:23:45.415Z,95.65
2023-03-21T01:24:55.038Z,95.65
2023-03-21T01:25:45.450Z,95.65
2023-03-21T01:26:45.377Z,95.75
2023-03-21T01:27:45.348Z,95.86
2023-03-21T01:28:45.593Z,95.86
2023-03-21T01:29:45.337Z,95.95
2023-03-21T01:30:45.362Z,96.06
2023-03-21T01:31:45.702Z,96.16
2023-03-21T01:32:45.329Z,96.26
2023-03-21T01:33:45.281Z,96.26
2023-03-21T01:34:45.286Z,96.26
2023-03-21T01:35:53.418Z,96.37
2023-03-21T01:36:45.360Z,96.37
2023-03-21T01:37:45.250Z,96.37
2023-03-21T01:38:45.521Z,96.47
2023-03-21T01:39:45.259Z,96.57
2023-03-21T01:40:45.223Z,96.57
2023-03-21T01:41:45.218Z,96.57
2023-03-21T01:42:45.265Z,96.67
2023-03-21T01:43:45.180Z,96.67
2023-03-21T01:44:45.173Z,96.67
2023-03-21T01:45:45.463Z,96.78
2023-03-21T01:47:00.018Z,96.78
2023-03-21T01:47:45.222Z,96.88
2023-03-21T01:48:45.189Z,96.88
2023-03-21T01:49:45.122Z,96.78
2023-03-21T01:50:45.114Z,96.88
2023-03-21T01:51:45.089Z,96.88
2023-03-21T01:52:46.384Z,96.98
2023-03-21T01:53:45.075Z,97.08
2023-03-21T01:54:45.106Z,97.08
2023-03-21T01:55:45.056Z,97.19
2023-03-21T01:56:45.048Z,97.19
2023-03-21T01:57:55.223Z,97.29
2023-03-21T01:58:45.042Z,97.39
2023-03-21T01:59:45.346Z,97.39
2023-03-21T02:00:45.076Z,97.39
2023-03-21T02:01:45.014Z,97.49
2023-03-21T02:02:44.988Z,97.49
2023-03-21T02:03:45.008Z,97.49
2023-03-21T02:04:44.964Z,97.60
2023-03-21T02:05:44.946Z,97.70
2023-03-21T02:06:45.298Z,97.80
2023-03-21T02:07:44.956Z,97.91
2023-03-21T02:08:44.941Z,97.91
2023-03-21T02:09:44.914Z,98.11
2023-03-21T02:10:44.906Z,98.11
2023-03-21T02:11:44.882Z,98.21
2023-03-21T02:12:44.919Z,98.21
2023-03-21T02:13:45.148Z,98.32
2023-03-21T02:14:44.881Z,98.42
2023-03-21T02:15:44.853Z,98.52
2023-03-21T02:16:44.908Z,98.57
2023-03-21T02:17:44.822Z,98.67
2023-03-21T02:18:44.859Z,98.67
2023-03-21T02:19:53.095Z,98.67
2023-03-21T02:20:44.795Z,98.77
2023-03-21T02:21:44.791Z,98.77
2023-03-21T02:22:44.780Z,98.77
2023-03-21T02:23:44.769Z,98.87
2023-03-21T02:24:48.905Z,98.77
2023-03-21T02:25:44.743Z,98.87
2023-03-21T02:26:46.527Z,98.87
2023-03-21T02:27:44.731Z,98.72
2023-03-21T02:28:44.716Z,98.87
2023-03-21T02:29:44.689Z,98.87
2023-03-21T02:30:51.648Z,98.87
2023-03-21T02:31:44.765Z,98.97
2023-03-21T02:32:44.679Z,98.97
2023-03-21T02:33:44.954Z,98.97
2023-03-21T02:34:44.647Z,98.97
2023-03-21T02:35:54.232Z,98.97
2023-03-21T02:36:44.719Z,98.97
2023-03-21T02:37:49.277Z,98.97
2023-03-21T02:38:44.624Z,98.97
2023-03-21T02:39:44.606Z,98.97
2023-03-21T02:40:44.895Z,98.87
2023-03-21T02:41:44.590Z,98.87
2023-03-21T02:42:48.924Z,98.83
2023-03-21T02:43:44.561Z,98.83
2023-03-21T02:44:44.547Z,98.72
2023-03-21T02:45:44.606Z,98.72
2023-03-21T02:46:51.053Z,98.72
2023-03-21T02:47:44.670Z,98.72
2023-03-21T02:48:50.930Z,98.62
2023-03-21T02:49:44.496Z,98.62
2023-03-21T02:50:44.496Z,98.72
2023-03-21T02:51:44.462Z,98.83
2023-03-21T02:52:44.481Z,99.13
2023-03-21T02:53:44.738Z,99.54
2023-03-21T02:54:48.340Z,99.75
2023-03-21T02:55:44.423Z,99.99
2023-03-21T02:56:44.446Z,99.99
2023-03-21T02:57:44.482Z,99.99
2023-03-21T02:58:44.419Z,99.99
2023-03-21T02:59:53.576Z,99.99
2023-03-21T03:00:44.431Z,99.99
2023-03-21T03:01:44.372Z,99.99
2023-03-21T03:02:44.359Z,99.99
2023-03-21T03:03:44.344Z,99.99
2023-03-21T03:04:44.396Z,99.99
2023-03-21T03:05:44.316Z,99.99
2023-03-21T03:06:44.778Z,99.99
2023-03-21T03:07:44.308Z,99.99
2023-03-21T03:08:56.281Z,99.99
2023-03-21T03:09:44.299Z,99.99
2023-03-21T03:10:44.282Z,99.99
2023-03-21T03:11:44.569Z,99.99
2023-03-21T03:12:44.283Z,99.99
2023-03-21T03:13:44.243Z,99.99
2023-03-21T03:15:00.272Z,99.99
2023-03-21T03:15:44.270Z,99.99
2023-03-21T03:16:44.219Z,99.99
2023-03-21T03:17:44.196Z,99.99
2023-03-21T03:18:44.235Z,99.99
2023-03-21T03:19:49.954Z,99.99
2023-03-21T03:20:44.177Z,99.99
2023-03-21T03:21:44.185Z,99.99
2023-03-21T03:22:44.151Z,99.99
2023-03-21T03:23:44.439Z,99.99
2023-03-21T03:24:44.165Z,99.99
2023-03-21T03:25:44.131Z,99.99
2023-03-21T03:26:44.132Z,99.99
2023-03-21T03:27:44.098Z,99.99
2023-03-21T03:28:44.086Z,99.99
2023-03-21T03:29:44.074Z,99.99
2023-03-21T03:30:57.175Z,99.99
2023-03-21T03:31:44.116Z,99.99
2023-03-21T03:32:44.080Z,99.99
2023-03-21T03:33:44.034Z,99.99
2023-03-21T03:34:44.051Z,99.99
2023-03-21T03:35:46.417Z,99.99
2023-03-21T03:36:44.056Z,99.99
2023-03-21T03:37:44.277Z,99.99
2023-03-21T03:38:43.986Z,99.99
2023-03-21T03:39:43.962Z,99.99
2023-03-21T03:40:43.966Z,99.99
2023-03-21T03:42:07.849Z,99.99
2023-03-21T03:42:43.982Z,99.99
2023-03-21T03:43:43.914Z,99.99
2023-03-21T03:44:44.192Z,99.99
2023-03-21T03:45:43.893Z,99.99
2023-03-21T03:46:43.896Z,99.99
2023-03-21T03:47:56.036Z,99.99
2023-03-21T03:48:43.919Z,99.99
2023-03-21T03:49:43.871Z,99.99
2023-03-21T03:50:43.848Z,99.99
2023-03-21T03:51:44.134Z,99.99
2023-03-21T03:52:55.365Z,99.99
2023-03-21T03:53:43.819Z,99.90
2023-03-21T03:54:43.847Z,99.79
2023-03-21T03:55:43.804Z,99.79
2023-03-21T03:56:43.784Z,99.49
2023-03-21T03:57:43.779Z,99.49
2023-03-21T03:58:45.899Z,99.38
2023-03-21T03:59:43.809Z,99.18
2023-03-21T04:00:43.782Z,99.18
2023-03-21T04:01:43.764Z,99.08
2023-03-21T04:02:43.799Z,98.87
2023-03-21T04:03:49.873Z,98.46
2023-03-21T04:04:43.828Z,98.46
2023-03-21T04:05:43.972Z,98.25
2023-03-21T04:06:43.730Z,98.16
2023-03-21T04:07:43.665Z,98.16
2023-03-21T04:08:43.662Z,97.95
2023-03-21T04:09:45.206Z,97.95
2023-03-21T04:10:43.647Z,97.95
2023-03-21T04:11:43.629Z,97.85
2023-03-21T04:12:43.956Z,97.74
2023-03-21T04:13:43.625Z,97.64
2023-03-21T04:14:46.044Z,97.44
2023-03-21T04:15:43.597Z,97.44
2023-03-21T04:16:43.590Z,97.13
2023-03-21T04:17:43.577Z,97.03
2023-03-21T04:18:43.604Z,96.98
2023-03-21T04:19:43.837Z,96.98
2023-03-21T04:20:43.676Z,96.82
2023-03-21T04:21:43.544Z,96.78
2023-03-21T04:22:43.543Z,96.67
2023-03-21T04:23:43.503Z,96.47
2023-03-21T04:24:43.537Z,96.37
2023-03-21T04:25:55.500Z,96.47
2023-03-21T04:26:43.497Z,96.37
2023-03-21T04:27:43.470Z,96.16
2023-03-21T04:28:43.463Z,96.16
2023-03-21T04:29:43.461Z,96.06
2023-03-21T04:30:58.555Z,95.86
2023-03-21T04:31:43.504Z,95.86
2023-03-21T04:32:43.734Z,95.75
2023-03-21T04:33:43.438Z,95.75
2023-03-21T04:34:43.386Z,95.75
2023-03-21T04:35:43.466Z,95.65
2023-03-21T04:36:43.717Z,95.75
2023-03-21T04:37:43.361Z,95.75
2023-03-21T04:38:43.357Z,95.75
2023-03-21T04:39:43.623Z,95.75
2023-03-21T04:40:43.335Z,95.75
2023-03-21T04:41:43.327Z,95.75
2023-03-21T04:42:43.370Z,95.79
2023-03-21T04:43:43.312Z,95.75
2023-03-21T04:44:43.289Z,95.79
2023-03-21T04:45:43.414Z,95.54
2023-03-21T04:46:43.561Z,95.79
2023-03-21T04:47:43.301Z,95.79
2023-03-21T04:48:43.288Z,95.69
2023-03-21T04:49:43.242Z,95.79
2023-03-21T04:50:43.217Z,95.69
2023-03-21T04:51:43.217Z,95.49
2023-03-21T04:52:43.263Z,95.49
2023-03-21T04:53:43.494Z,95.59
2023-03-21T04:54:43.322Z,95.59
2023-03-21T04:55:43.302Z,95.59
2023-03-21T04:56:43.158Z,95.39
2023-03-21T04:57:43.160Z,95.28
2023-03-21T04:58:43.204Z,95.28
2023-03-21T04:59:43.154Z,95.39
2023-03-21T05:00:43.214Z,95.39
2023-03-21T05:01:43.104Z,95.18
2023-03-21T05:02:43.150Z,95.28
2023-03-21T05:03:43.108Z,95.07
2023-03-21T05:04:43.084Z,95.07
2023-03-21T05:05:43.373Z,95.03
2023-03-21T05:06:43.085Z,94.98
2023-03-21T05:07:43.065Z,94.93
2023-03-21T05:08:43.041Z,94.93
2023-03-21T05:09:43.027Z,94.93
2023-03-21T05:10:43.022Z,94.87
2023-03-21T05:11:43.001Z,94.83
2023-03-21T05:12:43.022Z,94.77
2023-03-21T05:13:43.003Z,94.83
2023-03-21T05:14:42.991Z,94.67
2023-03-21T05:15:42.971Z,94.67
2023-03-21T05:16:43.010Z,94.67
2023-03-21T05:17:43.245Z,94.56
2023-03-21T05:18:42.957Z,94.67
2023-03-21T05:19:42.920Z,94.77
2023-03-21T05:20:42.910Z,94.77
2023-03-21T05:21:42.891Z,94.77
2023-03-21T05:22:42.890Z,94.77
2023-03-21T05:23:42.912Z,94.77
2023-03-21T05:24:43.250Z,94.77
2023-03-21T05:25:42.860Z,94.67
2023-03-21T05:26:42.858Z,94.77
2023-03-21T05:27:42.830Z,94.87
2023-03-21T05:28:42.814Z,94.98
2023-03-21T05:29:42.834Z,94.98
2023-03-21T05:30:42.947Z,94.98
2023-03-21T05:31:43.077Z,94.98
2023-03-21T05:32:42.840Z,94.98
2023-03-21T05:33:42.766Z,95.07
2023-03-21T05:34:42.755Z,95.07
2023-03-21T05:35:42.779Z,95.18
2023-03-21T05:36:42.797Z,95.18
2023-03-21T05:37:42.739Z,95.14
2023-03-21T05:38:43.008Z,95.28
2023-03-21T05:39:42.698Z,95.34
2023-03-21T05:40:42.823Z,95.49
2023-03-21T05:41:42.676Z,95.59
2023-03-21T05:42:42.728Z,95.69
2023-03-21T05:43:42.671Z,95.65
2023-03-21T05:44:42.640Z,95.79
2023-03-21T05:45:42.955Z,95.79
2023-03-21T05:46:42.620Z,95.90
2023-03-21T05:47:42.667Z,96.00
2023-03-21T05:48:42.665Z,96.10
2023-03-21T05:49:42.615Z,96.20
2023-03-21T05:50:42.595Z,96.62
2023-03-21T05:51:42.588Z,96.62
2023-03-21T05:52:42.857Z,96.51
2023-03-21T05:53:42.574Z,96.72
2023-03-21T05:54:42.596Z,96.92
2023-03-21T05:55:42.532Z,96.92
2023-03-21T05:56:42.524Z,96.92
2023-03-21T05:57:42.538Z,96.92
2023-03-21T05:58:42.513Z,97.13
2023-03-21T05:59:42.827Z,97.13
2023-03-21T06:00:42.541Z,97.13
2023-03-21T06:01:42.490Z,97.33
2023-03-21T06:02:42.478Z,97.13
2023-03-21T06:03:42.474Z,97.23
2023-03-21T06:04:42.463Z,97.13
2023-03-21T06:05:42.446Z,97.03
2023-03-21T06:06:42.740Z,97.13
2023-03-21T06:07:42.426Z,97.13
2023-03-21T06:08:42.402Z,97.03
2023-03-21T06:09:42.407Z,97.13
2023-03-21T06:10:42.385Z,96.92
2023-03-21T06:11:42.388Z,97.23
2023-03-21T06:12:42.441Z,97.33
2023-03-21T06:13:42.650Z,97.54
2023-03-21T06:14:42.400Z,97.95
2023-03-21T06:15:42.403Z,97.64
2023-03-21T06:16:42.321Z,98.16
2023-03-21T06:17:42.321Z,98.46
2023-03-21T06:18:42.352Z,98.57
2023-03-21T06:19:42.289Z,98.77
2023-03-21T06:20:42.567Z,99.08
2023-03-21T06:21:42.269Z,99.08
2023-03-21T06:22:42.286Z,99.28
2023-03-21T06:23:42.262Z,99.59
2023-03-21T06:24:42.268Z,99.69
2023-03-21T06:25:42.229Z,99.90
2023-03-21T06:26:42.206Z,99.99
2023-03-21T06:27:42.490Z,99.99
2023-03-21T06:28:42.198Z,99.99
2023-03-21T06:29:42.201Z,99.99
2023-03-21T06:30:42.221Z,99.99
2023-03-21T06:31:42.216Z,99.99
2023-03-21T06:32:42.181Z,99.99
2023-03-21T06:33:42.192Z,99.99
2023-03-21T06:34:42.166Z,99.99
2023-03-21T06:35:42.221Z,99.99
2023-03-21T06:36:42.164Z,99.99
2023-03-21T06:37:42.122Z,99.99
2023-03-21T06:38:42.097Z,99.99
2023-03-21T06:39:42.094Z,99.99
2023-03-21T06:40:42.375Z,99.99
2023-03-21T06:41:42.072Z,99.99
2023-03-21T06:42:42.103Z,99.99
2023-03-21T06:43:42.049Z,99.99
2023-03-21T06:44:42.042Z,99.99
2023-03-21T06:45:42.029Z,99.99
2023-03-21T06:46:42.049Z,99.99
2023-03-21T06:47:42.430Z,99.99
2023-03-21T06:48:42.028Z,99.99
2023-03-21T06:49:41.981Z,99.99
2023-03-21T06:50:41.962Z,99.99
2023-03-21T06:51:41.947Z,99.99
2023-03-21T06:52:41.977Z,99.99
2023-03-21T06:53:42.043Z,99.99
2023-03-21T06:54:42.268Z,99.99
2023-03-21T06:55:41.938Z,99.99
2023-03-21T06:56:41.925Z,99.99
2023-03-21T06:57:41.894Z,99.99
2023-03-21T06:58:41.908Z,99.99
2023-03-21T06:59:41.900Z,99.99
2023-03-21T07:00:42.012Z,99.99
2023-03-21T07:01:42.188Z,99.99
2023-03-21T07:02:41.894Z,99.99
2023-03-21T07:03:41.843Z,99.99
2023-03-21T07:04:41.861Z,99.99
2023-03-21T07:05:41.836Z,99.99
2023-03-21T07:06:41.845Z,99.99
2023-03-21T07:07:41.811Z,99.99
2023-03-21T07:08:42.073Z,99.99
2023-03-21T07:09:41.772Z,99.99
2023-03-21T07:10:43.777Z,99.99
2023-03-21T07:11:41.779Z,99.99
2023-03-21T07:12:41.791Z,99.99
2023-03-21T07:13:41.734Z,99.99
2023-03-21T07:14:41.721Z,99.99
2023-03-21T07:15:43.057Z,99.99
2023-03-21T07:16:41.754Z,99.99
2023-03-21T07:17:41.713Z,99.99
2023-03-21T07:18:41.795Z,99.99
2023-03-21T07:19:44.396Z,99.99
2023-03-21T07:20:41.732Z,99.99
2023-03-21T07:21:41.658Z,99.99
2023-03-21T07:22:41.942Z,99.99
2023-03-21T07:23:41.646Z,99.99
2023-03-21T07:24:41.697Z,99.99
2023-03-21T07:25:42.026Z,99.99
2023-03-21T07:26:41.600Z,99.99
2023-03-21T07:27:41.761Z,99.99
2023-03-21T07:28:41.580Z,99.99
2023-03-21T07:29:41.927Z,99.99
2023-03-21T07:30:41.611Z,99.99
2023-03-21T07:31:41.637Z,99.99
2023-03-21T07:32:41.548Z,99.99
2023-03-21T07:33:41.605Z,99.99
2023-03-21T07:34:41.516Z,99.99
2023-03-21T07:35:41.857Z,99.99
2023-03-21T07:36:41.922Z,99.99
2023-03-21T07:37:41.522Z,99.99
2023-03-21T07:38:41.484Z,99.99
2023-03-21T07:39:41.528Z,99.99
2023-03-21T07:40:41.448Z,99.99
2023-03-21T07:41:41.496Z,99.99
2023-03-21T07:42:42.316Z,99.99
2023-03-21T07:43:41.461Z,99.99
2023-03-21T07:44:41.409Z,99.99
2023-03-21T07:45:41.767Z,99.99
2023-03-21T07:46:41.411Z,99.99
2023-03-21T07:47:41.482Z,99.99
2023-03-21T07:48:41.439Z,99.99
2023-03-21T07:49:41.680Z,99.99
2023-03-21T07:50:41.389Z,99.99
2023-03-21T07:51:41.350Z,99.99
2023-03-21T07:52:41.366Z,99.99
2023-03-21T07:53:41.336Z,99.99
2023-03-21T07:54:41.390Z,99.99
2023-03-21T07:55:41.346Z,99.99
2023-03-21T07:56:41.289Z,99.99
2023-03-21T07:57:41.349Z,99.99
2023-03-21T07:58:41.291Z,99.99
2023-03-21T07:59:41.283Z,99.99
2023-03-21T08:00:41.270Z,99.99
2023-03-21T08:01:41.568Z,99.99
2023-03-21T08:02:41.330Z,99.99
2023-03-21T08:03:41.378Z,99.99
2023-03-21T08:04:41.248Z,99.99
2023-03-21T08:05:41.744Z,99.99
2023-03-21T08:06:41.229Z,99.99
2023-03-21T08:07:41.187Z,99.99
2023-03-21T08:08:41.229Z,99.99
2023-03-21T08:09:41.159Z,99.99
2023-03-21T08:10:41.146Z,99.99
2023-03-21T08:11:41.134Z,99.99
2023-03-21T08:12:41.164Z,99.99
2023-03-21T08:13:41.472Z,99.99
2023-03-21T08:14:41.139Z,99.99
2023-03-21T08:15:41.154Z,99.99
2023-03-21T08:16:41.182Z,99.99
2023-03-21T08:17:41.072Z,99.99
2023-03-21T08:18:41.100Z,99.99
2023-03-21T08:19:41.073Z,99.99
2023-03-21T08:20:41.341Z,99.99
2023-03-21T08:21:41.062Z,99.99
2023-03-21T08:22:41.045Z,99.99
2023-03-21T08:23:41.009Z,99.99
2023-03-21T08:24:41.065Z,99.99
2023-03-21T08:25:40.979Z,99.99
2023-03-21T08:26:40.974Z,99.99
2023-03-21T08:27:41.297Z,99.99
2023-03-21T08:28:40.973Z,99.99
2023-03-21T08:29:40.973Z,99.99
2023-03-21T08:30:41.012Z,99.99
2023-03-21T08:31:40.954Z,99.99
2023-03-21T08:32:40.914Z,99.99
2023-03-21T08:33:40.906Z,99.99
2023-03-21T08:34:41.162Z,99.99
2023-03-21T08:35:41.408Z,99.99
2023-03-21T08:36:41.068Z,99.99
2023-03-21T08:37:40.890Z,99.99
2023-03-21T08:38:40.863Z,99.99
2023-03-21T08:39:41.054Z,99.99
2023-03-21T08:40:40.862Z,99.99
2023-03-21T08:41:40.835Z,99.99
2023-03-21T08:42:40.879Z,99.99
2023-03-21T08:43:40.812Z,99.99
2023-03-21T08:44:40.801Z,99.99
2023-03-21T08:45:40.787Z,99.99
2023-03-21T08:46:40.806Z,99.99
2023-03-21T08:47:40.867Z,99.99
2023-03-21T08:48:40.817Z,99.99
2023-03-21T08:49:40.782Z,99.99
2023-03-21T08:50:40.749Z,99.99
2023-03-21T08:51:40.722Z,99.99
2023-03-21T08:52:40.742Z,99.99
2023-03-21T08:53:40.712Z,99.99
2023-03-21T08:54:40.753Z,99.99
2023-03-21T08:55:40.708Z,99.99
2023-03-21T08:56:40.669Z,99.99
2023-03-21T08:57:40.661Z,99.99
2023-03-21T08:58:40.678Z,99.99
2023-03-21T08:59:41.066Z,99.99
2023-03-21T09:00:40.700Z,99.99
2023-03-21T09:01:40.642Z,99.99
2023-03-21T09:02:40.690Z,99.99
2023-03-21T09:03:40.596Z,99.99
2023-03-21T09:04:40.770Z,99.99
2023-03-21T09:05:40.603Z,99.99
2023-03-21T09:06:40.664Z,99.99
2023-03-21T09:07:40.609Z,99.99
2023-03-21T09:08:40.545Z,99.99
2023-03-21T09:09:40.544Z,99.99
2023-03-21T09:10:40.554Z,99.99
2023-03-21T09:11:40.905Z,99.99
2023-03-21T09:12:40.563Z,99.99
2023-03-21T09:13:40.534Z,99.99
2023-03-21T09:14:40.494Z,99.99
2023-03-21T09:15:40.997Z,99.99
2023-03-21T09:16:40.477Z,99.99
2023-03-21T09:17:40.496Z,99.99
2023-03-21T09:18:40.768Z,99.99
2023-03-21T09:19:40.480Z,99.99
2023-03-21T09:20:40.481Z,99.99
2023-03-21T09:21:40.399Z,99.99
2023-03-21T09:22:42.648Z,99.99
2023-03-21T09:23:40.428Z,99.99
2023-03-21T09:24:40.437Z,99.99
2023-03-21T09:25:40.962Z,99.99
2023-03-21T09:26:40.392Z,99.99
2023-03-21T09:27:41.162Z,99.99
2023-03-21T09:28:40.323Z,99.99
2023-03-21T09:29:40.332Z,99.99
2023-03-21T09:30:40.379Z,99.99
2023-03-21T09:31:40.395Z,99.99
2023-03-21T09:32:40.578Z,99.99
2023-03-21T09:33:40.332Z,99.99
2023-03-21T09:34:40.266Z,99.99
2023-03-21T09:35:40.740Z,99.99
2023-03-21T09:36:40.297Z,99.99
2023-03-21T09:37:40.515Z,99.99
2023-03-21T09:38:40.227Z,99.99
2023-03-21T09:39:40.526Z,99.99
2023-03-21T09:40:40.241Z,99.99
2023-03-21T09:41:40.198Z,99.99
2023-03-21T09:42:40.227Z,99.99
2023-03-21T09:43:40.190Z,99.99
2023-03-21T09:44:40.154Z,99.99
2023-03-21T09:45:40.425Z,99.99
2023-03-21T09:46:40.476Z,99.99
2023-03-21T09:47:40.134Z,99.99
2023-03-21T09:48:54.262Z,99.99
2023-03-21T09:49:40.200Z,99.99
2023-03-21T09:50:40.148Z,99.99
2023-03-21T09:51:40.095Z,99.99
2023-03-21T09:52:40.833Z,99.99
2023-03-21T09:53:40.390Z,99.99
2023-03-21T09:54:40.132Z,99.99
2023-03-21T09:55:40.637Z,99.99
2023-03-21T09:56:40.131Z,99.99
2023-03-21T09:57:40.099Z,99.99
2023-03-21T09:58:40.012Z,99.99
2023-03-21T09:59:40.000Z,99.99
2023-03-21T10:00:40.450Z,99.99
2023-03-21T10:01:39.987Z,99.99
2023-03-21T10:02:40.036Z,99.99
2023-03-21T10:03:39.970Z,99.99
2023-03-21T10:04:39.979Z,99.99
2023-03-21T10:05:40.343Z,99.99
2023-03-21T10:06:39.974Z,99.99
2023-03-21T10:07:40.219Z,99.99
2023-03-21T10:08:39.921Z,99.99
2023-03-21T10:09:39.889Z,99.99
2023-03-21T10:10:40.412Z,99.99
2023-03-21T10:11:39.862Z,99.99
2023-03-21T10:12:40.012Z,99.99
2023-03-21T10:13:39.876Z,99.99
2023-03-21T10:14:40.169Z,99.99
2023-03-21T10:15:40.160Z,99.99
2023-03-21T10:16:39.931Z,99.99
2023-03-21T10:17:39.805Z,99.99
2023-03-21T10:18:39.857Z,99.99
2023-03-21T10:19:39.868Z,99.99
2023-03-21T10:20:39.797Z,99.99
2023-03-21T10:22:39.767Z,99.99
2023-03-21T10:23:39.752Z,99.99
2023-03-21T10:24:39.772Z,99.99
2023-03-21T10:25:40.099Z,99.99
2023-03-21T10:26:39.729Z,99.99
2023-03-21T10:27:39.720Z,99.99
2023-03-21T10:28:52.546Z,99.99
2023-03-21T10:29:39.811Z,99.99
2023-03-21T10:30:39.711Z,99.99
2023-03-21T10:31:39.736Z,99.99
2023-03-21T10:32:39.677Z,99.99
2023-03-21T10:33:39.661Z,99.99
2023-03-21T10:34:39.616Z,99.99
2023-03-21T10:35:40.568Z,99.99
2023-03-21T10:36:39.733Z,99.99
2023-03-21T10:37:39.601Z,99.99
2023-03-21T10:38:39.599Z,99.99
2023-03-21T10:39:39.642Z,99.99
2023-03-21T10:40:39.591Z,99.99
2023-03-21T10:41:39.591Z,99.99
2023-03-21T10:42:39.591Z,99.99
2023-03-21T10:43:39.530Z,99.99
2023-03-21T10:44:39.539Z,99.99
2023-03-21T10:45:39.877Z,99.99
2023-03-21T10:46:39.907Z,99.99
2023-03-21T10:47:39.834Z,99.99
2023-03-21T10:48:40.009Z,99.99
2023-03-21T10:50:05.143Z,99.99
2023-03-21T10:50:39.505Z,99.99
2023-03-21T10:51:39.505Z,99.99
2023-03-21T10:52:39.470Z,99.99
2023-03-21T10:53:39.500Z,99.99
2023-03-21T10:54:39.494Z,99.99
2023-03-21T10:55:40.216Z,99.99
2023-03-21T10:56:39.416Z,99.99
2023-03-21T10:57:39.383Z,99.99
2023-03-21T10:58:39.402Z,99.99
2023-03-21T10:59:39.409Z,99.99
2023-03-21T11:00:39.430Z,99.99
2023-03-21T11:01:39.542Z,99.99
2023-03-21T11:02:39.668Z,99.99
2023-03-21T11:03:39.335Z,99.99
2023-03-21T11:04:39.332Z,99.99
2023-03-21T11:05:39.546Z,99.99
2023-03-21T11:06:39.418Z,99.99
2023-03-21T11:07:39.294Z,99.99
2023-03-21T11:08:39.331Z,99.99
2023-03-21T11:09:39.551Z,99.99
2023-03-21T11:10:39.287Z,99.99
2023-03-21T11:11:39.254Z,99.99
2023-03-21T11:12:39.333Z,99.99
2023-03-21T11:13:39.360Z,99.99
2023-03-21T11:14:39.260Z,99.99
2023-03-21T11:15:39.832Z,99.99
2023-03-21T11:16:40.826Z,99.99
2023-03-21T11:17:39.207Z,99.99
2023-03-21T11:18:39.210Z,99.99
2023-03-21T11:19:39.200Z,99.99
2023-03-21T11:20:39.148Z,99.99
2023-03-21T11:21:39.148Z,99.99
2023-03-21T11:22:39.162Z,99.99
2023-03-21T11:23:39.117Z,99.99
2023-03-21T11:24:39.155Z,99.99
2023-03-21T11:25:39.581Z,99.99
2023-03-21T11:26:39.090Z,99.99
2023-03-21T11:27:39.395Z,99.99
2023-03-21T11:28:39.077Z,99.99
2023-03-21T11:29:39.180Z,99.99
2023-03-21T11:30:39.115Z,99.99
2023-03-21T11:31:39.095Z,99.99
2023-03-21T11:32:39.034Z,99.99
2023-03-21T11:33:39.074Z,99.99
2023-03-21T11:34:39.025Z,99.99
2023-03-21T11:35:39.317Z,99.99
2023-03-21T11:36:39.173Z,99.99
2023-03-21T11:37:38.992Z,99.99
2023-03-21T11:38:38.999Z,99.99
2023-03-21T11:39:39.227Z,99.99
2023-03-21T11:40:38.983Z,99.99
2023-03-21T11:41:38.958Z,99.99
2023-03-21T11:42:39.057Z,99.99
2023-03-21T11:43:38.936Z,99.99
2023-03-21T11:44:38.938Z,99.99
2023-03-21T11:45:39.239Z,99.99
2023-03-21T11:46:39.214Z,99.99
2023-03-21T11:47:38.936Z,99.99
2023-03-21T11:48:38.921Z,99.99
2023-03-21T11:49:38.857Z,99.99
2023-03-21T11:50:38.899Z,99.99
2023-03-21T11:51:38.853Z,99.99
2023-03-21T11:52:38.813Z,99.99
2023-03-21T11:53:39.102Z,99.99
2023-03-21T11:54:38.865Z,99.99
2023-03-21T11:55:39.215Z,99.99
2023-03-21T11:56:38.796Z,99.99
2023-03-21T11:57:38.780Z,99.99
2023-03-21T11:58:38.830Z,99.99
2023-03-21T11:59:38.768Z,99.99
2023-03-21T12:00:38.886Z,99.99
2023-03-21T12:01:38.724Z,99.99
2023-03-21T12:02:38.759Z,99.99
2023-03-21T12:03:47.789Z,99.99
2023-03-21T12:04:38.749Z,99.99
2023-03-21T12:05:39.052Z,99.99
2023-03-21T12:06:39.199Z,99.99
2023-03-21T12:07:38.639Z,99.99
2023-03-21T12:08:38.646Z,99.99
2023-03-21T12:09:38.627Z,99.99
2023-03-21T12:10:38.647Z,99.99
2023-03-21T12:11:38.616Z,99.99
2023-03-21T12:12:39.692Z,99.99
2023-03-21T12:13:38.923Z,99.99
2023-03-21T12:14:38.696Z,99.99
2023-03-21T12:15:39.072Z,99.99
2023-03-21T12:16:38.604Z,99.99
2023-03-21T12:17:38.586Z,99.99
2023-03-21T12:18:39.359Z,99.99
2023-03-21T12:19:38.523Z,99.99
2023-03-21T12:20:38.872Z,99.99
2023-03-21T12:21:38.536Z,99.99
2023-03-21T12:22:38.526Z,99.99
2023-03-21T12:23:38.623Z,99.99
2023-03-21T12:24:38.607Z,99.99
2023-03-21T12:25:38.973Z,99.99
2023-03-21T12:26:38.515Z,99.99
2023-03-21T12:27:39.437Z,99.99
2023-03-21T12:28:39.244Z,99.99
2023-03-21T12:29:38.458Z,99.99
2023-03-21T12:30:38.506Z,99.99
2023-03-21T12:31:38.575Z,99.99
2023-03-21T12:32:38.429Z,99.99
2023-03-21T12:33:38.399Z,99.99
2023-03-21T12:34:38.758Z,99.99
2023-03-21T12:35:38.825Z,99.99
2023-03-21T12:36:38.450Z,99.99
2023-03-21T12:37:38.406Z,99.99
2023-03-21T12:38:38.325Z,99.99
2023-03-21T12:39:38.312Z,99.99
2023-03-21T12:40:38.337Z,99.99
2023-03-21T12:41:38.635Z,99.99
2023-03-21T12:42:38.334Z,99.99
2023-03-21T12:43:38.331Z,99.99
2023-03-21T12:44:38.279Z,99.99
2023-03-21T12:45:46.765Z,99.99
2023-03-21T12:46:38.377Z,99.99
2023-03-21T12:47:38.253Z,99.38
2023-03-21T12:48:38.627Z,99.99
2023-03-21T12:49:38.305Z,99.99
2023-03-21T12:50:38.812Z,99.99
2023-03-21T12:51:38.200Z,99.95
2023-03-21T12:52:38.226Z,99.84
2023-03-21T12:53:38.242Z,99.33